sensor_id;sensor_type;location;lat;lon;timestamp;noise_LAeq;noise_LA_min;noise_LA_max;noise_LA01;noise_LA95
72736;Laerm;60856;53.238;10.448;2023-07-13T00:01:11;46.61;45.26;49.79;;
72736;Laerm;60856;53.238;10.448;2023-07-13T00:03:36;46.58;45.35;50.73;;
72736;Laerm;60856;53.238;10.448;2023-07-13T00:06:01;46.60;45.36;49.97;;
72736;Laerm;60856;53.238;10.448;2023-07-13T00:08:30;46.60;45.22;50.32;;
72736;Laerm;60856;53.238;10.448;2023-07-13T00:10:55;46.60;45.17;50.58;;
72736;Laerm;60856;53.238;10.448;2023-07-13T00:13:20;46.60;45.24;50.15;;
72736;Laerm;60856;53.238;10.448;2023-07-13T00:15:46;46.61;45.07;49.75;;
72736;Laerm;60856;53.238;10.448;2023-07-13T00:18:11;46.60;45.22;50.37;;
72736;Laerm;60856;53.238;10.448;2023-07-13T00:20:37;46.60;45.26;49.95;;
72736;Laerm;60856;53.238;10.448;2023-07-13T00:23:02;46.58;45.34;50.04;;
72736;Laerm;60856;53.238;10.448;2023-07-13T00:28:30;46.58;45.28;49.67;;
72736;Laerm;60856;53.238;10.448;2023-07-13T00:30:56;46.59;44.88;49.81;;
72736;Laerm;60856;53.238;10.448;2023-07-13T00:33:21;46.59;45.09;50.00;;
72736;Laerm;60856;53.238;10.448;2023-07-13T00:35:48;46.61;45.18;49.81;;
72736;Laerm;60856;53.238;10.448;2023-07-13T00:38:13;46.60;45.32;49.63;;
72736;Laerm;60856;53.238;10.448;2023-07-13T00:40:38;46.59;45.35;50.29;;
72736;Laerm;60856;53.238;10.448;2023-07-13T00:43:08;46.59;45.06;50.31;;
72736;Laerm;60856;53.238;10.448;2023-07-13T00:47:59;46.57;45.32;49.57;;
72736;Laerm;60856;53.238;10.448;2023-07-13T00:50:24;46.58;45.13;49.42;;
72736;Laerm;60856;53.238;10.448;2023-07-13T00:52:50;46.59;45.26;49.51;;
72736;Laerm;60856;53.238;10.448;2023-07-13T00:55:18;46.59;45.28;49.85;;
72736;Laerm;60856;53.238;10.448;2023-07-13T00:57:44;46.60;45.20;49.71;;
72736;Laerm;60856;53.238;10.448;2023-07-13T01:00:09;46.60;45.20;49.78;;
72736;Laerm;60856;53.238;10.448;2023-07-13T01:02:37;46.59;45.12;49.84;;
72736;Laerm;60856;53.238;10.448;2023-07-13T01:05:10;46.58;45.12;49.90;;
72736;Laerm;60856;53.238;10.448;2023-07-13T01:07:35;46.60;45.23;50.48;;
72736;Laerm;60856;53.238;10.448;2023-07-13T01:10:01;46.60;45.15;49.82;;
72736;Laerm;60856;53.238;10.448;2023-07-13T01:12:27;46.58;45.06;50.38;;
72736;Laerm;60856;53.238;10.448;2023-07-13T01:14:58;46.60;45.32;49.92;;
72736;Laerm;60856;53.238;10.448;2023-07-13T01:17:25;46.58;45.33;49.75;;
72736;Laerm;60856;53.238;10.448;2023-07-13T01:19:51;46.58;45.24;49.96;;
72736;Laerm;60856;53.238;10.448;2023-07-13T01:22:17;46.58;45.27;50.06;;
72736;Laerm;60856;53.238;10.448;2023-07-13T01:24:44;46.56;45.34;49.55;;
72736;Laerm;60856;53.238;10.448;2023-07-13T01:27:11;46.58;45.30;49.97;;
72736;Laerm;60856;53.238;10.448;2023-07-13T01:29:37;46.59;45.32;50.01;;
72736;Laerm;60856;53.238;10.448;2023-07-13T01:32:08;46.59;44.90;49.69;;
72736;Laerm;60856;53.238;10.448;2023-07-13T01:34:33;46.61;45.24;50.51;;
72736;Laerm;60856;53.238;10.448;2023-07-13T01:36:58;46.59;45.22;49.70;;
72736;Laerm;60856;53.238;10.448;2023-07-13T01:42:27;46.58;45.07;50.00;;
72736;Laerm;60856;53.238;10.448;2023-07-13T01:44:53;46.57;45.33;49.55;;
72736;Laerm;60856;53.238;10.448;2023-07-13T01:47:18;46.59;44.95;49.66;;
72736;Laerm;60856;53.238;10.448;2023-07-13T01:52:46;46.60;45.36;50.16;;
72736;Laerm;60856;53.238;10.448;2023-07-13T01:55:11;46.57;45.24;49.61;;
72736;Laerm;60856;53.238;10.448;2023-07-13T01:57:37;46.58;45.17;49.75;;
72736;Laerm;60856;53.238;10.448;2023-07-13T02:00:04;46.59;45.04;49.61;;
72736;Laerm;60856;53.238;10.448;2023-07-13T02:02:30;46.61;45.33;49.93;;
72736;Laerm;60856;53.238;10.448;2023-07-13T02:07:59;46.60;44.93;50.27;;
72736;Laerm;60856;53.238;10.448;2023-07-13T02:10:24;46.58;45.17;49.67;;
72736;Laerm;60856;53.238;10.448;2023-07-13T02:18:56;46.59;45.39;49.66;;
72736;Laerm;60856;53.238;10.448;2023-07-13T02:21:22;46.58;45.15;49.58;;
72736;Laerm;60856;53.238;10.448;2023-07-13T02:23:47;46.60;45.27;49.75;;
72736;Laerm;60856;53.238;10.448;2023-07-13T02:26:13;46.59;45.34;49.89;;
72736;Laerm;60856;53.238;10.448;2023-07-13T02:28:38;46.58;45.27;50.38;;
72736;Laerm;60856;53.238;10.448;2023-07-13T02:31:04;46.59;45.18;50.14;;
72736;Laerm;60856;53.238;10.448;2023-07-13T02:36:32;46.60;45.35;50.05;;
72736;Laerm;60856;53.238;10.448;2023-07-13T02:39:00;46.59;45.17;49.97;;
72736;Laerm;60856;53.238;10.448;2023-07-13T02:41:26;46.59;44.98;49.69;;
72736;Laerm;60856;53.238;10.448;2023-07-13T02:43:51;46.59;45.27;49.75;;
72736;Laerm;60856;53.238;10.448;2023-07-13T02:46:16;46.57;45.28;49.74;;
72736;Laerm;60856;53.238;10.448;2023-07-13T02:48:42;46.58;45.17;49.99;;
72736;Laerm;60856;53.238;10.448;2023-07-13T02:51:07;46.58;45.03;49.57;;
72736;Laerm;60856;53.238;10.448;2023-07-13T02:53:33;46.61;45.32;49.80;;
72736;Laerm;60856;53.238;10.448;2023-07-13T02:55:58;46.57;45.29;49.70;;
72736;Laerm;60856;53.238;10.448;2023-07-13T02:58:24;46.57;45.33;50.24;;
72736;Laerm;60856;53.238;10.448;2023-07-13T03:00:50;46.58;45.18;50.23;;
72736;Laerm;60856;53.238;10.448;2023-07-13T03:03:15;46.60;45.26;50.00;;
72736;Laerm;60856;53.238;10.448;2023-07-13T03:05:44;46.58;45.23;50.01;;
72736;Laerm;60856;53.238;10.448;2023-07-13T03:08:15;46.59;45.37;50.49;;
72736;Laerm;60856;53.238;10.448;2023-07-13T03:10:41;46.60;45.27;49.51;;
72736;Laerm;60856;53.238;10.448;2023-07-13T03:13:06;46.60;45.40;49.84;;
72736;Laerm;60856;53.238;10.448;2023-07-13T03:15:31;46.61;45.20;49.74;;
72736;Laerm;60856;53.238;10.448;2023-07-13T03:17:57;46.59;45.26;50.27;;
72736;Laerm;60856;53.238;10.448;2023-07-13T03:20:22;46.59;45.34;49.71;;
72736;Laerm;60856;53.238;10.448;2023-07-13T03:22:47;46.59;45.20;49.79;;
72736;Laerm;60856;53.238;10.448;2023-07-13T03:25:12;46.57;45.17;49.45;;
72736;Laerm;60856;53.238;10.448;2023-07-13T03:27:38;46.61;44.97;49.76;;
72736;Laerm;60856;53.238;10.448;2023-07-13T03:30:03;46.61;45.15;49.85;;
72736;Laerm;60856;53.238;10.448;2023-07-13T03:32:29;46.59;45.24;50.26;;
72736;Laerm;60856;53.238;10.448;2023-07-13T03:34:54;46.61;45.31;49.76;;
72736;Laerm;60856;53.238;10.448;2023-07-13T03:37:20;46.58;45.06;49.76;;
72736;Laerm;60856;53.238;10.448;2023-07-13T03:39:45;46.60;45.27;49.57;;
72736;Laerm;60856;53.238;10.448;2023-07-13T03:42:11;46.60;45.09;49.68;;
72736;Laerm;60856;53.238;10.448;2023-07-13T03:44:36;46.60;45.29;49.70;;
72736;Laerm;60856;53.238;10.448;2023-07-13T03:47:01;46.60;45.33;50.04;;
72736;Laerm;60856;53.238;10.448;2023-07-13T03:49:26;46.60;45.23;49.53;;
72736;Laerm;60856;53.238;10.448;2023-07-13T03:51:51;46.60;45.29;49.67;;
72736;Laerm;60856;53.238;10.448;2023-07-13T03:54:17;46.60;45.26;50.10;;
72736;Laerm;60856;53.238;10.448;2023-07-13T03:56:42;46.63;45.23;49.70;;
72736;Laerm;60856;53.238;10.448;2023-07-13T03:59:07;46.67;45.28;49.63;;
72736;Laerm;60856;53.238;10.448;2023-07-13T04:01:32;46.76;45.29;50.24;;
72736;Laerm;60856;53.238;10.448;2023-07-13T04:03:58;46.77;45.43;49.85;;
72736;Laerm;60856;53.238;10.448;2023-07-13T04:06:25;46.83;45.38;50.18;;
72736;Laerm;60856;53.238;10.448;2023-07-13T04:08:52;46.84;45.47;50.54;;
72736;Laerm;60856;53.238;10.448;2023-07-13T04:11:18;46.89;45.57;49.72;;
72736;Laerm;60856;53.238;10.448;2023-07-13T04:13:43;47.22;45.67;50.57;;
72736;Laerm;60856;53.238;10.448;2023-07-13T04:16:09;47.05;45.43;49.84;;
72736;Laerm;60856;53.238;10.448;2023-07-13T04:18:34;47.09;45.61;50.33;;
72736;Laerm;60856;53.238;10.448;2023-07-13T04:21:00;47.12;45.89;49.88;;
72736;Laerm;60856;53.238;10.448;2023-07-13T04:23:25;47.11;45.73;49.88;;
72736;Laerm;60856;53.238;10.448;2023-07-13T04:25:51;47.07;45.74;50.55;;
72736;Laerm;60856;53.238;10.448;2023-07-13T04:28:20;47.11;45.53;51.67;;
72736;Laerm;60856;53.238;10.448;2023-07-13T04:30:46;47.08;45.63;59.35;;
72736;Laerm;60856;53.238;10.448;2023-07-13T04:33:11;57.76;46.52;59.92;;
72736;Laerm;60856;53.238;10.448;2023-07-13T04:35:37;57.81;56.55;58.77;;
72736;Laerm;60856;53.238;10.448;2023-07-13T04:38:02;57.85;56.25;58.85;;
72736;Laerm;60856;53.238;10.448;2023-07-13T04:40:28;57.91;56.47;58.80;;
72736;Laerm;60856;53.238;10.448;2023-07-13T04:42:54;57.72;56.19;58.79;;
72736;Laerm;60856;53.238;10.448;2023-07-13T04:45:19;57.43;56.01;58.66;;
72736;Laerm;60856;53.238;10.448;2023-07-13T04:47:44;57.92;56.90;58.83;;
72736;Laerm;60856;53.238;10.448;2023-07-13T04:50:12;57.59;56.49;58.69;;
72736;Laerm;60856;53.238;10.448;2023-07-13T04:52:37;57.59;56.21;58.80;;
72736;Laerm;60856;53.238;10.448;2023-07-13T04:55:02;57.55;55.99;58.88;;
72736;Laerm;60856;53.238;10.448;2023-07-13T04:57:28;57.35;56.26;58.38;;
72736;Laerm;60856;53.238;10.448;2023-07-13T04:59:53;57.37;56.34;58.52;;
72736;Laerm;60856;53.238;10.448;2023-07-13T05:02:20;57.42;56.35;58.44;;
72736;Laerm;60856;53.238;10.448;2023-07-13T05:04:48;57.42;56.25;58.70;;
72736;Laerm;60856;53.238;10.448;2023-07-13T05:07:13;57.75;56.21;58.64;;
72736;Laerm;60856;53.238;10.448;2023-07-13T05:09:39;57.30;56.15;58.51;;
72736;Laerm;60856;53.238;10.448;2023-07-13T05:12:05;57.05;56.07;58.20;;
72736;Laerm;60856;53.238;10.448;2023-07-13T05:14:30;57.02;56.06;58.32;;
72736;Laerm;60856;53.238;10.448;2023-07-13T05:16:56;56.80;55.67;58.06;;
72736;Laerm;60856;53.238;10.448;2023-07-13T05:19:22;56.61;55.57;57.74;;
72736;Laerm;60856;53.238;10.448;2023-07-13T05:21:47;56.47;55.23;57.71;;
72736;Laerm;60856;53.238;10.448;2023-07-13T05:24:13;56.32;55.28;57.38;;
72736;Laerm;60856;53.238;10.448;2023-07-13T05:26:38;56.20;55.17;57.28;;
72736;Laerm;60856;53.238;10.448;2023-07-13T05:29:03;56.16;54.91;57.19;;
72736;Laerm;60856;53.238;10.448;2023-07-13T05:31:28;56.20;55.19;57.27;;
72736;Laerm;60856;53.238;10.448;2023-07-13T05:33:54;56.19;55.05;57.37;;
72736;Laerm;60856;53.238;10.448;2023-07-13T05:36:19;56.19;55.17;57.37;;
72736;Laerm;60856;53.238;10.448;2023-07-13T05:38:44;56.17;55.14;57.35;;
72736;Laerm;60856;53.238;10.448;2023-07-13T05:41:09;56.08;55.10;57.29;;
72736;Laerm;60856;53.238;10.448;2023-07-13T05:43:35;55.85;54.80;57.30;;
72736;Laerm;60856;53.238;10.448;2023-07-13T05:46:00;55.69;54.66;57.31;;
72736;Laerm;60856;53.238;10.448;2023-07-13T05:48:25;55.46;54.41;56.70;;
72736;Laerm;60856;53.238;10.448;2023-07-13T05:50:50;55.23;54.00;56.52;;
72736;Laerm;60856;53.238;10.448;2023-07-13T05:53:16;55.15;53.71;56.38;;
72736;Laerm;60856;53.238;10.448;2023-07-13T05:55:45;55.04;53.57;56.60;;
72736;Laerm;60856;53.238;10.448;2023-07-13T05:58:12;55.10;53.91;56.45;;
72736;Laerm;60856;53.238;10.448;2023-07-13T06:00:38;54.75;53.37;56.36;;
72736;Laerm;60856;53.238;10.448;2023-07-13T06:03:03;54.69;53.51;56.31;;
72736;Laerm;60856;53.238;10.448;2023-07-13T06:05:29;54.21;52.63;55.79;;
72736;Laerm;60856;53.238;10.448;2023-07-13T06:07:54;53.90;52.66;55.16;;
72736;Laerm;60856;53.238;10.448;2023-07-13T06:10:20;53.86;52.38;55.44;;
72736;Laerm;60856;53.238;10.448;2023-07-13T06:12:45;53.53;52.05;55.07;;
72736;Laerm;60856;53.238;10.448;2023-07-13T06:15:10;53.55;52.33;55.19;;
72736;Laerm;60856;53.238;10.448;2023-07-13T06:17:45;53.78;52.33;55.23;;
72736;Laerm;60856;53.238;10.448;2023-07-13T06:20:10;53.81;52.05;55.46;;
72736;Laerm;60856;53.238;10.448;2023-07-13T06:22:35;53.50;52.22;54.90;;
72736;Laerm;60856;53.238;10.448;2023-07-13T06:25:01;54.00;52.26;60.37;;
72736;Laerm;60856;53.238;10.448;2023-07-13T06:27:26;57.42;52.70;60.46;;
72736;Laerm;60856;53.238;10.448;2023-07-13T06:29:51;55.71;51.93;59.63;;
72736;Laerm;60856;53.238;10.448;2023-07-13T06:32:16;56.45;52.31;60.39;;
72736;Laerm;60856;53.238;10.448;2023-07-13T06:34:42;58.40;52.49;62.16;;
72736;Laerm;60856;53.238;10.448;2023-07-13T06:37:07;60.72;52.77;67.07;;
72736;Laerm;60856;53.238;10.448;2023-07-13T06:39:32;59.27;52.63;65.55;;
72736;Laerm;60856;53.238;10.448;2023-07-13T06:41:57;61.05;52.66;67.02;;
72736;Laerm;60856;53.238;10.448;2023-07-13T06:44:22;60.18;52.56;66.06;;
72736;Laerm;60856;53.238;10.448;2023-07-13T06:46:48;57.05;55.96;58.29;;
72736;Laerm;60856;53.238;10.448;2023-07-13T06:49:13;57.51;52.27;61.98;;
72736;Laerm;60856;53.238;10.448;2023-07-13T06:51:38;55.42;52.06;58.38;;
72736;Laerm;60856;53.238;10.448;2023-07-13T06:54:03;58.32;52.29;62.80;;
72736;Laerm;60856;53.238;10.448;2023-07-13T06:56:29;59.57;52.49;63.02;;
72736;Laerm;60856;53.238;10.448;2023-07-13T06:58:54;58.42;52.51;63.11;;
72736;Laerm;60856;53.238;10.448;2023-07-13T07:01:19;61.02;52.64;66.84;;
72736;Laerm;60856;53.238;10.448;2023-07-13T07:03:44;59.07;52.99;62.61;;
72736;Laerm;60856;53.238;10.448;2023-07-13T07:06:17;60.66;52.66;67.06;;
72736;Laerm;60856;53.238;10.448;2023-07-13T07:08:43;59.28;52.33;65.18;;
72736;Laerm;60856;53.238;10.448;2023-07-13T07:11:11;59.59;52.60;66.74;;
72736;Laerm;60856;53.238;10.448;2023-07-13T07:13:37;61.28;53.22;63.29;;
72736;Laerm;60856;53.238;10.448;2023-07-13T07:16:02;60.40;52.44;66.43;;
72736;Laerm;60856;53.238;10.448;2023-07-13T07:18:28;56.96;52.53;62.88;;
72736;Laerm;60856;53.238;10.448;2023-07-13T07:20:53;60.18;52.96;63.25;;
72736;Laerm;60856;53.238;10.448;2023-07-13T07:23:18;60.94;52.87;67.15;;
72736;Laerm;60856;53.238;10.448;2023-07-13T07:25:44;62.13;53.08;67.07;;
72736;Laerm;60856;53.238;10.448;2023-07-13T07:28:09;61.96;52.72;67.18;;
72736;Laerm;60856;53.238;10.448;2023-07-13T07:30:34;60.28;52.91;66.91;;
72736;Laerm;60856;53.238;10.448;2023-07-13T07:33:00;57.07;56.08;58.53;;
72736;Laerm;60856;53.238;10.448;2023-07-13T07:35:26;57.21;52.61;60.87;;
72736;Laerm;60856;53.238;10.448;2023-07-13T07:37:51;58.21;52.71;63.54;;
72736;Laerm;60856;53.238;10.448;2023-07-13T07:40:16;56.89;52.00;59.01;;
72736;Laerm;60856;53.238;10.448;2023-07-13T07:42:42;57.01;54.28;58.61;;
72736;Laerm;60856;53.238;10.448;2023-07-13T07:45:07;56.61;55.53;57.75;;
72736;Laerm;60856;53.238;10.448;2023-07-13T07:47:32;56.45;53.73;58.48;;
72736;Laerm;60856;53.238;10.448;2023-07-13T07:49:58;56.88;52.32;58.53;;
72736;Laerm;60856;53.238;10.448;2023-07-13T07:52:23;56.75;55.56;58.17;;
72736;Laerm;60856;53.238;10.448;2023-07-13T07:54:48;56.48;55.46;58.16;;
72736;Laerm;60856;53.238;10.448;2023-07-13T07:57:14;56.70;55.77;58.05;;
72736;Laerm;60856;53.238;10.448;2023-07-13T07:59:39;56.74;55.62;57.85;;
72736;Laerm;60856;53.238;10.448;2023-07-13T08:02:04;56.70;55.61;57.75;;
72736;Laerm;60856;53.238;10.448;2023-07-13T08:04:30;56.87;55.72;58.22;;
72736;Laerm;60856;53.238;10.448;2023-07-13T08:06:55;56.73;55.53;58.03;;
72736;Laerm;60856;53.238;10.448;2023-07-13T08:09:21;56.71;55.66;57.93;;
72736;Laerm;60856;53.238;10.448;2023-07-13T08:11:46;56.89;55.81;57.99;;
72736;Laerm;60856;53.238;10.448;2023-07-13T08:14:12;56.80;55.76;58.00;;
72736;Laerm;60856;53.238;10.448;2023-07-13T08:16:37;57.06;55.85;58.19;;
72736;Laerm;60856;53.238;10.448;2023-07-13T08:19:02;57.14;55.94;58.17;;
72736;Laerm;60856;53.238;10.448;2023-07-13T08:21:29;56.98;55.87;58.03;;
72736;Laerm;60856;53.238;10.448;2023-07-13T08:23:54;56.82;55.45;57.79;;
72736;Laerm;60856;53.238;10.448;2023-07-13T08:26:20;56.78;55.67;57.89;;
72736;Laerm;60856;53.238;10.448;2023-07-13T08:28:46;56.74;55.67;57.80;;
72736;Laerm;60856;53.238;10.448;2023-07-13T08:31:12;56.91;55.87;58.01;;
72736;Laerm;60856;53.238;10.448;2023-07-13T08:33:40;56.90;55.63;57.96;;
72736;Laerm;60856;53.238;10.448;2023-07-13T08:36:06;56.94;55.85;57.95;;
72736;Laerm;60856;53.238;10.448;2023-07-13T08:38:31;56.99;55.86;58.15;;
72736;Laerm;60856;53.238;10.448;2023-07-13T08:40:57;57.03;56.06;57.98;;
72736;Laerm;60856;53.238;10.448;2023-07-13T08:43:26;57.02;55.97;58.14;;
72736;Laerm;60856;53.238;10.448;2023-07-13T08:45:54;56.94;55.70;58.19;;
72736;Laerm;60856;53.238;10.448;2023-07-13T08:48:26;57.02;55.87;58.06;;
72736;Laerm;60856;53.238;10.448;2023-07-13T08:50:57;56.76;55.69;57.74;;
72736;Laerm;60856;53.238;10.448;2023-07-13T08:53:23;56.73;55.69;57.70;;
72736;Laerm;60856;53.238;10.448;2023-07-13T08:55:54;56.66;55.40;57.62;;
72736;Laerm;60856;53.238;10.448;2023-07-13T08:58:22;56.57;55.58;57.49;;
72736;Laerm;60856;53.238;10.448;2023-07-13T09:01:09;56.48;55.36;57.62;;
72736;Laerm;60856;53.238;10.448;2023-07-13T09:03:42;56.59;55.59;57.73;;
72736;Laerm;60856;53.238;10.448;2023-07-13T09:06:11;56.69;55.57;57.86;;
72736;Laerm;60856;53.238;10.448;2023-07-13T09:16:07;56.55;55.43;57.64;;
72736;Laerm;60856;53.238;10.448;2023-07-13T09:18:38;56.48;55.39;57.50;;
72736;Laerm;60856;53.238;10.448;2023-07-13T09:21:15;56.65;55.44;57.74;;
72736;Laerm;60856;53.238;10.448;2023-07-13T09:23:41;56.85;55.55;57.87;;
72736;Laerm;60856;53.238;10.448;2023-07-13T09:26:17;56.94;55.70;57.84;;
72736;Laerm;60856;53.238;10.448;2023-07-13T09:28:44;56.72;55.63;57.94;;
72736;Laerm;60856;53.238;10.448;2023-07-13T09:33:37;56.84;55.77;57.85;;
72736;Laerm;60856;53.238;10.448;2023-07-13T09:36:09;57.02;55.84;58.03;;
72736;Laerm;60856;53.238;10.448;2023-07-13T09:38:42;57.01;56.00;58.03;;
72736;Laerm;60856;53.238;10.448;2023-07-13T09:41:18;57.01;55.95;58.01;;
72736;Laerm;60856;53.238;10.448;2023-07-13T09:44:01;57.00;55.99;58.16;;
72736;Laerm;60856;53.238;10.448;2023-07-13T09:46:26;56.74;55.42;57.93;;
72736;Laerm;60856;53.238;10.448;2023-07-13T09:48:51;56.90;55.72;58.13;;
72736;Laerm;60856;53.238;10.448;2023-07-13T09:51:17;56.94;55.86;57.93;;
72736;Laerm;60856;53.238;10.448;2023-07-13T09:53:43;56.72;55.71;57.93;;
72736;Laerm;60856;53.238;10.448;2023-07-13T09:56:21;56.63;55.52;57.83;;
72736;Laerm;60856;53.238;10.448;2023-07-13T09:58:47;56.43;55.27;57.38;;
72736;Laerm;60856;53.238;10.448;2023-07-13T10:01:12;56.21;55.25;57.33;;
72736;Laerm;60856;53.238;10.448;2023-07-13T10:03:39;56.13;55.03;57.24;;
72736;Laerm;60856;53.238;10.448;2023-07-13T10:06:17;56.19;55.08;57.36;;
72736;Laerm;60856;53.238;10.448;2023-07-13T10:08:44;56.51;55.43;57.42;;
72736;Laerm;60856;53.238;10.448;2023-07-13T10:11:10;56.66;55.54;57.72;;
72736;Laerm;60856;53.238;10.448;2023-07-13T10:13:37;56.67;55.61;57.92;;
72736;Laerm;60856;53.238;10.448;2023-07-13T10:16:04;56.80;55.69;57.99;;
72736;Laerm;60856;53.238;10.448;2023-07-13T10:18:36;56.85;55.74;57.95;;
72736;Laerm;60856;53.238;10.448;2023-07-13T10:21:11;56.50;55.41;57.53;;
72736;Laerm;60856;53.238;10.448;2023-07-13T10:23:37;56.74;55.71;57.77;;
72736;Laerm;60856;53.238;10.448;2023-07-13T10:26:02;56.72;55.57;57.75;;
72736;Laerm;60856;53.238;10.448;2023-07-13T10:28:32;56.66;55.71;57.64;;
72736;Laerm;60856;53.238;10.448;2023-07-13T10:31:00;56.63;55.43;57.63;;
72736;Laerm;60856;53.238;10.448;2023-07-13T10:33:26;56.61;55.52;57.67;;
72736;Laerm;60856;53.238;10.448;2023-07-13T10:35:54;56.64;55.61;57.75;;
72736;Laerm;60856;53.238;10.448;2023-07-13T10:38:21;56.63;55.48;57.74;;
72736;Laerm;60856;53.238;10.448;2023-07-13T10:40:53;56.69;55.61;57.67;;
72736;Laerm;60856;53.238;10.448;2023-07-13T10:43:22;56.73;55.62;57.81;;
72736;Laerm;60856;53.238;10.448;2023-07-13T10:45:49;56.57;55.46;57.74;;
72736;Laerm;60856;53.238;10.448;2023-07-13T10:48:16;56.75;55.63;57.90;;
72736;Laerm;60856;53.238;10.448;2023-07-13T10:50:43;56.90;55.88;58.02;;
72736;Laerm;60856;53.238;10.448;2023-07-13T10:53:17;56.87;55.74;57.97;;
72736;Laerm;60856;53.238;10.448;2023-07-13T10:58:21;57.03;55.91;57.96;;
72736;Laerm;60856;53.238;10.448;2023-07-13T11:00:49;57.02;55.91;58.09;;
72736;Laerm;60856;53.238;10.448;2023-07-13T11:03:15;56.93;55.82;57.90;;
72736;Laerm;60856;53.238;10.448;2023-07-13T11:05:42;56.90;55.94;57.88;;
72736;Laerm;60856;53.238;10.448;2023-07-13T11:08:16;56.91;55.97;57.83;;
72736;Laerm;60856;53.238;10.448;2023-07-13T11:10:55;56.91;55.95;57.85;;
72736;Laerm;60856;53.238;10.448;2023-07-13T11:16:01;56.91;55.90;57.94;;
72736;Laerm;60856;53.238;10.448;2023-07-13T11:18:36;56.93;55.91;58.03;;
72736;Laerm;60856;53.238;10.448;2023-07-13T11:21:21;56.73;55.71;57.83;;
72736;Laerm;60856;53.238;10.448;2023-07-13T11:23:54;56.62;55.57;57.65;;
72736;Laerm;60856;53.238;10.448;2023-07-13T11:26:38;56.66;55.43;57.84;;
72736;Laerm;60856;53.238;10.448;2023-07-13T11:31:55;56.89;55.77;58.05;;
72736;Laerm;60856;53.238;10.448;2023-07-13T11:34:25;56.85;55.76;57.83;;
72736;Laerm;60856;53.238;10.448;2023-07-13T11:36:52;56.51;55.53;57.68;;
72736;Laerm;60856;53.238;10.448;2023-07-13T11:39:34;56.43;55.47;57.46;;
72736;Laerm;60856;53.238;10.448;2023-07-13T11:42:01;56.69;55.49;57.83;;
72736;Laerm;60856;53.238;10.448;2023-07-13T11:44:29;56.69;55.67;57.72;;
72736;Laerm;60856;53.238;10.448;2023-07-13T11:46:58;56.50;55.47;57.46;;
72736;Laerm;60856;53.238;10.448;2023-07-13T11:49:29;56.63;55.62;57.91;;
72736;Laerm;60856;53.238;10.448;2023-07-13T11:51:55;56.83;55.63;57.92;;
72736;Laerm;60856;53.238;10.448;2023-07-13T11:56:51;56.64;55.46;57.71;;
72736;Laerm;60856;53.238;10.448;2023-07-13T11:59:18;56.74;55.32;57.71;;
72736;Laerm;60856;53.238;10.448;2023-07-13T12:01:44;56.81;55.65;57.96;;
72736;Laerm;60856;53.238;10.448;2023-07-13T12:04:19;56.74;55.72;57.73;;
72736;Laerm;60856;53.238;10.448;2023-07-13T12:06:46;56.73;55.68;57.72;;
72736;Laerm;60856;53.238;10.448;2023-07-13T12:09:12;56.73;55.62;57.74;;
72736;Laerm;60856;53.238;10.448;2023-07-13T12:11:42;56.56;55.45;57.66;;
72736;Laerm;60856;53.238;10.448;2023-07-13T12:14:13;56.60;55.54;57.71;;
72736;Laerm;60856;53.238;10.448;2023-07-13T12:16:38;56.53;55.44;57.50;;
72736;Laerm;60856;53.238;10.448;2023-07-13T12:19:09;56.72;55.67;57.68;;
72736;Laerm;60856;53.238;10.448;2023-07-13T12:21:41;56.72;55.81;57.70;;
72736;Laerm;60856;53.238;10.448;2023-07-13T12:24:13;56.74;55.77;57.79;;
72736;Laerm;60856;53.238;10.448;2023-07-13T12:26:39;56.77;55.83;57.71;;
72736;Laerm;60856;53.238;10.448;2023-07-13T12:29:05;56.73;55.74;57.71;;
72736;Laerm;60856;53.238;10.448;2023-07-13T12:34:09;56.67;55.71;57.62;;
72736;Laerm;60856;53.238;10.448;2023-07-13T12:36:37;56.64;55.66;57.59;;
72736;Laerm;60856;53.238;10.448;2023-07-13T12:39:06;56.60;55.72;57.65;;
72736;Laerm;60856;53.238;10.448;2023-07-13T12:41:36;56.53;55.44;57.69;;
72736;Laerm;60856;53.238;10.448;2023-07-13T12:44:01;56.52;55.46;57.58;;
72736;Laerm;60856;53.238;10.448;2023-07-13T12:46:27;56.60;55.58;57.59;;
72736;Laerm;60856;53.238;10.448;2023-07-13T12:48:54;56.48;55.45;57.48;;
72736;Laerm;60856;53.238;10.448;2023-07-13T12:51:23;56.41;55.41;57.50;;
72736;Laerm;60856;53.238;10.448;2023-07-13T12:53:51;56.40;55.25;57.39;;
72736;Laerm;60856;53.238;10.448;2023-07-13T12:56:22;56.42;55.42;57.44;;
72736;Laerm;60856;53.238;10.448;2023-07-13T12:58:48;56.30;55.29;57.39;;
72736;Laerm;60856;53.238;10.448;2023-07-13T13:01:19;56.08;55.10;57.20;;
72736;Laerm;60856;53.238;10.448;2023-07-13T13:03:46;55.89;54.81;56.78;;
72736;Laerm;60856;53.238;10.448;2023-07-13T13:08:45;55.51;54.47;56.50;;
72736;Laerm;60856;53.238;10.448;2023-07-13T13:11:11;55.39;54.34;56.43;;
72736;Laerm;60856;53.238;10.448;2023-07-13T13:13:36;55.30;54.16;56.52;;
72736;Laerm;60856;53.238;10.448;2023-07-13T13:16:20;55.28;54.31;56.35;;
72736;Laerm;60856;53.238;10.448;2023-07-13T13:18:47;55.27;54.33;56.34;;
72736;Laerm;60856;53.238;10.448;2023-07-13T13:21:12;55.25;54.17;56.54;;
72736;Laerm;60856;53.238;10.448;2023-07-13T13:23:37;55.27;53.82;56.32;;
72736;Laerm;60856;53.238;10.448;2023-07-13T13:26:05;55.31;54.28;56.44;;
72736;Laerm;60856;53.238;10.448;2023-07-13T13:28:30;55.36;54.39;56.41;;
72736;Laerm;60856;53.238;10.448;2023-07-13T13:30:57;55.48;54.40;56.51;;
72736;Laerm;60856;53.238;10.448;2023-07-13T13:33:22;55.74;54.59;56.81;;
72736;Laerm;60856;53.238;10.448;2023-07-13T13:35:48;56.02;55.00;57.16;;
72736;Laerm;60856;53.238;10.448;2023-07-13T13:38:15;56.19;55.15;57.24;;
72736;Laerm;60856;53.238;10.448;2023-07-13T13:40:41;56.26;55.02;57.37;;
72736;Laerm;60856;53.238;10.448;2023-07-13T13:43:14;56.23;55.22;57.33;;
72736;Laerm;60856;53.238;10.448;2023-07-13T13:45:40;56.25;55.09;57.24;;
72736;Laerm;60856;53.238;10.448;2023-07-13T13:48:06;56.29;55.26;57.39;;
72736;Laerm;60856;53.238;10.448;2023-07-13T13:50:32;56.35;55.21;57.40;;
72736;Laerm;60856;53.238;10.448;2023-07-13T13:52:57;56.37;55.32;57.32;;
72736;Laerm;60856;53.238;10.448;2023-07-13T13:55:23;56.38;55.42;57.37;;
72736;Laerm;60856;53.238;10.448;2023-07-13T13:57:49;56.44;55.46;57.48;;
72736;Laerm;60856;53.238;10.448;2023-07-13T14:00:15;56.44;55.26;57.57;;
72736;Laerm;60856;53.238;10.448;2023-07-13T14:02:42;56.37;55.19;57.36;;
72736;Laerm;60856;53.238;10.448;2023-07-13T14:05:12;56.26;55.28;57.70;;
72736;Laerm;60856;53.238;10.448;2023-07-13T14:07:38;56.15;54.92;57.22;;
72736;Laerm;60856;53.238;10.448;2023-07-13T14:10:13;56.10;55.13;57.34;;
72736;Laerm;60856;53.238;10.448;2023-07-13T14:12:40;56.07;55.09;57.10;;
72736;Laerm;60856;53.238;10.448;2023-07-13T14:15:08;56.07;55.01;56.94;;
72736;Laerm;60856;53.238;10.448;2023-07-13T14:17:37;56.09;55.03;57.13;;
72736;Laerm;60856;53.238;10.448;2023-07-13T14:20:02;56.07;54.99;57.03;;